x

South Brooks (46132) Wave Buoy

6:00 - Sat 4th Jul 2015 All times are PDT. -7 hours from GMT.

  • Sig Wave height 5.9ft
  • Peak Period 6s
  • Wind
    27mph, 34mph gusts
  • Sea Temp 52°f
  • Ar Temp 56°f
  • Sea Pressure 1015.5mb
  • South Brooks
  • South Brooks

More Historic Weather Station data

Upgrade to MSW Pro to gain access to the past 30 days of data for over 8000 Wavebouys and Weather Stations around the globe.

Join Pro

Comparision Forecast

View Surf forecast
   
Sáb 07/04 6:00 6ft 6s 27 34 mph 1015.5mb 52f 56f
5:00 6.5ft 6s 29 34 mph 1015.3mb 52f 56f
4:00 6ft 6s 29 36 mph 1015.1mb 54f 56f
3:00 6.5ft 6s 29 36 mph 1015.2mb 54f 56f
2:00 6.5ft 5s 27 31 mph 1015.2mb 53f 56f
1:00 6ft 6s 29 34 mph 1015.5mb 51f 56f
12:00 6.5ft 7s 29 34 mph 1015.9mb 52f 56f
Sex 07/03 11:00 7ft 6s 31 36 mph 1016mb 52f 56f
9:00 7ft 7s 29 36 mph 1016.2mb 53f 56f
8:00 7ft 6s 31 36 mph 1015.9mb 54f 56f
7:00 7ft 5s 31 38 mph 1016.1mb 54f 57f
5:00 7ft 6s 31 38 mph 1016.4mb 54f 57f
4:00 6.5ft 6s 29 36 mph 1016.8mb 54f 57f
3:00 6ft 6s 31 36 mph 1016.9mb 53f 57f
2:00 6ft 6s 27 34 mph 1018mb 53f 56f
1:00 5ft 6s 27 34 mph 1018.5mb 53f 56f
12:00  -   -  27
mph
- - -
10:00 5ft 6s 29 34 mph 1018.9mb 53f 56f
9:00 5ft 6s 27 34 mph 1018.9mb 53f 56f
8:00 5ft 5s 27 31 mph 1019.2mb 53f 56f
7:00 5ft 5s 29 34 mph 1018.7mb 53f 56f
6:00 5ft 6s 27 31 mph 1018.7mb 53f 56f
5:00 5ft 5s 25 29 mph 1018.6mb 53f 56f
4:00 5ft 5s 25 29 mph 1018.6mb 53f 56f
3:00 5ft 5s 27 29 mph 1018.2mb 53f 56f
2:00  -   -  27
mph
1018.3mb - 56f
1:00 5ft 5s 25 31 mph 1018.5mb 53f 56f
12:00 5ft 5s 22 27 mph 1018.9mb 53f 56f
Qui 07/02 11:00 5ft 5s 22 27 mph 1019.3mb 53f 56f
10:00 5ft 5s 27 34 mph 1019.3mb 53f 55f
9:00  -   -  27
mph
- - -
8:00 5ft 5s 27 34 mph 1019.7mb 53f 56f
7:00 5ft 5s 27 31 mph 1019.8mb 53f 56f
6:00 5.5ft 5s 27 31 mph 1020.4mb 53f 56f
5:00 5ft 5s 27 31 mph 1020.2mb 53f 56f
4:00 5ft 5s 27 34 mph 1020.3mb 53f 57f
2:00 5ft 5s 27 31 mph 1020.5mb 53f 56f
1:00  -   -  27
mph
- - -
11:00 5ft 5s 27 31 mph 1020.4mb 53f 56f
10:00 5ft 5s 27 31 mph 1020.4mb 53f 56f
9:00 5ft 5s 25 31 mph 1020.6mb 53f 56f
8:00 5ft 6s 27
mph
1020.3mb 54f 56f
7:00  -   -  25
mph
1020.2mb - 56f
6:00 5.5ft 5s 27 31 mph 1019.8mb 53f 56f
4:00 6ft 6s 29 36 mph 1019.3mb 53f 56f
3:00 6ft 6s 29 36 mph 1019.1mb 53f 56f
2:00 6ft 6s 29 34 mph 1019mb 53f 56f
1:00 6ft 6s 31 36 mph 1018.8mb 53f 56f
12:00 6.5ft 6s 29 36 mph 1018.6mb 53f 56f
Qua 07/01 10:00 7ft 6s 29 36 mph 1018.7mb 53f 56f
9:00 7ft 6s 31
mph
1018.2mb 53f 57f
7:00 7ft 6s 29 34 mph 1018.7mb 54f 57f
6:00  -   -  29
mph
1018.9mb - 57f
5:00 7ft 6s 31 36 mph 1019.1mb 54f 57f
4:00 7ft 6s 29 36 mph 1019.3mb 54f 57f
3:00 6.5ft 6s 29 36 mph 1019.3mb 53f 57f
2:00 6.5ft 7s 29 34 mph 1019.1mb 54f 57f
12:00 6ft 6s 29 34 mph 1019.3mb 54f 56f
11:00 6.5ft 7s 29
mph
1019.5mb 55f 56f
10:00  -   -  29
mph
1019.8mb - 56f
9:00 6ft 7s 27 31 mph 1019.9mb 54f 56f
8:00  -   -  27
mph
- - -
6:00 6ft 6s 27 31 mph 1020.1mb 54f 56f
5:00 6.5ft 7s 27 31 mph 1019.9mb 54f 56f
4:00  -   -  29
mph
- - 56f
3:00 6ft 6s 25 34 mph 1021.1mb 53f 56f
1:00 6ft 7s 29 36 mph 1021mb 53f 57f
Ter 06/30 10:00  -   -  27
mph
- - 57f
9:00 7.5ft 7s 31 38 mph 1021.2mb 54f 57f
8:00  -   -  27
mph
- - -
7:00 6.5ft 6s 27 31 mph 1022.3mb 55f 58f
6:00 6.5ft 7s 27 34 mph 1022.5mb 55f 58f
5:00 7ft 7s 29 36 mph 1022.5mb 55f 58f